createdAt,value
2023-03-07T00:02:35.414Z,96640
2023-03-07T00:14:35.403Z,96630
2023-03-07T00:26:35.398Z,96630
2023-03-07T00:38:35.334Z,96600
2023-03-07T00:50:35.370Z,96590
2023-03-07T01:02:35.407Z,96580
2023-03-07T01:14:35.681Z,96560
2023-03-07T01:26:35.385Z,96550
2023-03-07T01:38:35.419Z,96540
2023-03-07T01:50:35.344Z,96520
2023-03-07T02:02:35.353Z,96510
2023-03-07T02:14:35.396Z,96490
2023-03-07T02:26:35.366Z,96480
2023-03-07T02:38:36.016Z,96460
2023-03-07T02:50:35.426Z,96460
2023-03-07T03:02:35.424Z,96460
2023-03-07T03:14:35.407Z,96450
2023-03-07T03:26:35.456Z,96440
2023-03-07T03:38:35.424Z,96430
2023-03-07T03:50:35.407Z,96430
2023-03-07T04:02:35.409Z,96420
2023-03-07T04:14:35.409Z,96430
2023-03-07T04:26:35.337Z,96410
2023-03-07T04:38:35.381Z,96400
2023-03-07T04:50:35.408Z,96380
2023-03-07T05:02:35.331Z,96370
2023-03-07T05:14:35.420Z,96370
2023-03-07T05:26:35.409Z,96350
2023-03-07T05:38:35.414Z,96350
2023-03-07T05:50:35.333Z,96360
2023-03-07T06:02:35.395Z,96350
2023-03-07T06:14:35.412Z,96340
2023-03-07T06:26:35.334Z,96340
2023-03-07T06:38:35.371Z,96350
2023-03-07T06:50:35.875Z,96360
2023-03-07T07:02:35.441Z,96350
2023-03-07T07:14:35.448Z,96330
2023-03-07T07:26:35.335Z,96350
2023-03-07T07:38:35.326Z,96350
2023-03-07T07:50:35.389Z,96350
2023-03-07T08:02:35.369Z,96340
2023-03-07T08:14:35.351Z,96340
2023-03-07T08:26:35.403Z,96340
2023-03-07T08:38:35.359Z,96330
2023-03-07T08:50:35.376Z,96340
2023-03-07T09:02:35.359Z,96370
2023-03-07T09:14:35.414Z,96360
2023-03-07T09:26:35.442Z,96350
2023-03-07T09:38:35.433Z,96330
2023-03-07T09:50:35.425Z,96340
2023-03-07T10:02:35.339Z,96320
2023-03-07T10:14:35.884Z,96300
2023-03-07T10:26:35.510Z,96300
2023-03-07T10:38:35.376Z,96300
2023-03-07T10:50:35.369Z,96290
2023-03-07T11:02:35.492Z,96280
2023-03-07T11:14:35.385Z,96290
2023-03-07T11:26:35.436Z,96280
2023-03-07T11:38:35.408Z,96270
2023-03-07T11:50:35.373Z,96270
2023-03-07T12:02:35.347Z,96260
2023-03-07T12:14:35.419Z,96250
2023-03-07T12:26:35.431Z,96250
2023-03-07T12:38:36.517Z,96250
2023-03-07T12:50:35.433Z,96220
2023-03-07T13:02:35.406Z,96210
2023-03-07T13:14:35.329Z,96220
2023-03-07T13:26:35.407Z,96220
2023-03-07T13:38:35.429Z,96210
2023-03-07T13:50:35.383Z,96210
2023-03-07T14:02:35.418Z,96200
2023-03-07T14:14:35.410Z,96190
2023-03-07T14:26:35.407Z,96200
2023-03-07T14:38:35.443Z,96200
2023-03-07T14:50:35.345Z,96210
2023-03-07T15:02:35.321Z,96200
2023-03-07T15:14:35.411Z,96190
2023-03-07T15:26:35.417Z,96180
2023-03-07T15:38:35.334Z,96180
2023-03-07T15:50:35.430Z,96180
2023-03-07T16:02:35.555Z,96190
2023-03-07T16:14:35.411Z,96180
2023-03-07T16:26:35.343Z,96200
2023-03-07T16:38:35.337Z,96210
2023-03-07T16:50:35.332Z,96210
2023-03-07T17:02:35.490Z,96270
2023-03-07T17:14:35.385Z,96280
2023-03-07T17:26:35.333Z,96280
2023-03-07T17:38:35.351Z,96300
2023-03-07T17:50:35.364Z,96310
2023-03-07T18:02:35.472Z,96330
2023-03-07T18:14:35.742Z,96340
2023-03-07T18:26:35.353Z,96360
2023-03-07T18:38:35.677Z,96360
2023-03-07T18:50:35.336Z,96370
2023-03-07T19:02:35.404Z,96380
2023-03-07T19:14:35.419Z,96370
2023-03-07T19:26:35.351Z,96370
2023-03-07T19:38:35.393Z,96400
2023-03-07T19:50:35.378Z,96410
2023-03-07T20:14:35.384Z,96440
2023-03-07T20:26:35.438Z,96440
2023-03-07T20:38:35.340Z,96450
2023-03-07T20:50:35.443Z,96470
2023-03-07T21:02:35.418Z,96470
2023-03-07T21:14:35.390Z,96490
2023-03-07T21:26:35.444Z,96490
2023-03-07T21:38:35.417Z,96520
2023-03-07T21:50:35.434Z,96520
2023-03-07T22:02:35.391Z,96540
2023-03-07T22:14:35.328Z,96550
2023-03-07T22:26:35.328Z,96560
2023-03-07T22:38:35.417Z,96570
2023-03-07T22:50:35.379Z,96580
2023-03-07T23:02:35.339Z,96560
2023-03-07T23:14:35.429Z,96570
2023-03-07T23:26:35.412Z,96570
2023-03-07T23:38:35.328Z,96550
2023-03-07T23:50:35.341Z,96560
